Time;durP1;ratioP1;P1;durP2;ratioP2;P2;SDS_P1;SDS_P2;PMS_P1;PMS_P2;Temp;Humidity;BMP_temperature;BMP_pressure;BME280_temperature;BME280_humidity;BME280_pressure;Samples;Min_cycle;Max_cycle;Signal;HPM_P1;HPM_P2
2022/10/30 00:01:37;;;;;;;17.05;6.28;;;18.30;70.50;;;;;;7401360;19;20089;-79
2022/10/30 00:04:06;;;;;;;24.20;6.43;;;18.20;70.50;;;;;;7379748;19;20077;-79
2022/10/30 00:06:35;;;;;;;24.00;6.85;;;18.20;71.00;;;;;;7379088;19;20021;-79
2022/10/30 00:09:03;;;;;;;23.83;7.03;;;18.20;71.10;;;;;;7381974;19;20078;-79
2022/10/30 00:11:32;;;;;;;20.80;6.50;;;18.30;71.00;;;;;;7387960;19;20023;-78
2022/10/30 00:14:03;;;;;;;26.10;6.63;;;18.30;70.90;;;;;;7386482;19;20097;-79
2022/10/30 00:16:32;;;;;;;21.70;6.78;;;18.30;71.30;;;;;;7400804;19;20105;-78
2022/10/30 00:19:01;;;;;;;21.92;6.43;;;18.40;70.60;;;;;;7378654;19;20093;-79
2022/10/30 00:21:29;;;;;;;22.42;6.57;;;18.30;70.60;;;;;;7378041;19;20018;-78
2022/10/30 00:23:58;;;;;;;16.77;6.63;;;18.30;70.50;;;;;;7379593;19;20509;-79
2022/10/30 00:26:27;;;;;;;23.40;7.18;;;18.40;70.70;;;;;;7376848;19;20031;-78
2022/10/30 00:28:58;;;;;;;27.27;5.95;;;18.30;70.50;;;;;;7374543;19;20031;-78
2022/10/30 00:31:29;;;;;;;17.73;5.93;;;18.30;70.60;;;;;;7398216;19;20032;-79
2022/10/30 00:34:00;;;;;;;21.17;6.72;;;18.40;71.40;;;;;;7380144;19;20015;-78
2022/10/30 00:36:29;;;;;;;23.38;6.80;;;18.40;70.70;;;;;;7377081;19;20025;-79
2022/10/30 00:38:58;;;;;;;22.33;7.07;;;18.40;70.60;;;;;;7377534;19;20011;-78
2022/10/30 00:41:27;;;;;;;25.75;7.13;;;18.40;70.60;;;;;;7380001;19;20121;-78
2022/10/30 00:43:56;;;;;;;29.33;7.90;;;18.40;70.40;;;;;;7375807;19;20035;-78
2022/10/30 00:46:32;;;;;;;18.77;6.65;;;18.50;70.40;;;;;;7398322;19;20060;-79
2022/10/30 00:49:05;;;;;;;23.92;6.80;;;18.50;70.50;;;;;;7380439;19;20078;-79
2022/10/30 00:51:38;;;;;;;18.13;6.55;;;18.50;70.20;;;;;;7379843;19;20081;-79
2022/10/30 00:54:09;;;;;;;18.75;7.45;;;18.50;70.20;;;;;;7375305;19;20062;-79
2022/10/30 00:56:38;;;;;;;30.25;9.00;;;18.40;70.10;;;;;;7375864;19;20014;-79
2022/10/30 00:59:11;;;;;;;33.53;9.55;;;18.40;70.00;;;;;;7375041;19;20022;-78
2022/10/30 01:01:46;;;;;;;39.78;10.77;;;18.40;70.00;;;;;;7397436;19;20090;-79
2022/10/30 01:04:16;;;;;;;24.17;8.70;;;18.40;70.80;;;;;;7396340;19;20025;-79
2022/10/30 01:06:50;;;;;;;24.95;8.10;;;18.40;69.80;;;;;;7395375;19;20094;-79
2022/10/30 01:09:20;;;;;;;22.55;7.32;;;18.40;70.00;;;;;;7396265;19;20022;-79
2022/10/30 01:11:49;;;;;;;22.55;7.28;;;18.30;70.10;;;;;;7396198;19;20011;-79
2022/10/30 01:14:21;;;;;;;19.05;7.15;;;18.20;70.20;;;;;;7397241;19;20035;-79
2022/10/30 01:17:16;;;;;;;17.88;6.63;;;18.20;70.30;;;;;;7395578;19;20125;-79
2022/10/30 01:19:50;;;;;;;33.97;6.78;;;18.20;70.40;;;;;;7395857;19;20022;-78
2022/10/30 01:22:36;;;;;;;24.95;7.47;;;18.20;70.20;;;;;;7395321;19;20024;-79
2022/10/30 01:25:13;;;;;;;20.77;6.95;;;18.20;70.30;;;;;;7395036;19;20029;-79
2022/10/30 01:27:50;;;;;;;21.05;7.28;;;18.20;70.30;;;;;;7393554;19;20033;-79
2022/10/30 01:30:30;;;;;;;22.67;6.65;;;18.20;70.40;;;;;;7395081;19;20384;-78
2022/10/30 01:33:14;;;;;;;17.40;6.30;;;18.10;70.30;;;;;;7396945;19;20089;-79
2022/10/30 01:35:49;;;;;;;19.48;5.93;;;18.10;70.50;;;;;;7392344;19;20019;-79
2022/10/30 01:38:23;;;;;;;20.58;6.15;;;18.10;70.50;;;;;;7398012;19;20114;-79
2022/10/30 01:40:52;;;;;;;15.23;6.10;;;18.10;70.50;;;;;;7396464;19;20482;-79
2022/10/30 01:43:21;;;;;;;21.13;6.25;;;18.20;70.40;;;;;;7394664;19;20334;-79
2022/10/30 01:46:08;;;;;;;20.50;6.32;;;18.20;70.20;;;;;;7395827;19;20442;-79
2022/10/30 01:49:03;;;;;;;32.05;6.50;;;18.20;70.40;;;;;;7392348;19;20803;-79
2022/10/30 01:51:46;;;;;;;21.67;6.15;;;18.10;70.70;;;;;;7396236;19;20034;-79
2022/10/30 01:54:23;;;;;;;15.80;5.80;;;18.10;70.50;;;;;;7398026;19;20014;-79
2022/10/30 01:57:02;;;;;;;28.23;6.78;;;18.10;70.60;;;;;;7394152;19;20014;-79
2022/10/30 01:59:37;;;;;;;25.50;7.25;;;18.10;70.70;;;;;;7395201;19;20603;-79
2022/10/30 02:02:06;;;;;;;25.80;7.00;;;18.10;70.40;;;;;;7376643;19;20022;-80
2022/10/30 02:04:38;;;;;;;24.05;7.03;;;18.20;70.40;;;;;;7412086;19;20019;-80
2022/10/30 02:07:07;;;;;;;19.45;7.10;;;18.20;70.40;;;;;;7389742;19;20066;-79
2022/10/30 02:09:36;;;;;;;20.67;7.22;;;18.20;70.60;;;;;;7384682;19;20019;-79
2022/10/30 02:12:05;;;;;;;33.42;7.45;;;18.10;70.80;;;;;;7373612;19;20053;-79
2022/10/30 02:14:39;;;;;;;18.00;6.53;;;18.20;71.20;;;;;;7372963;19;20014;-78
2022/10/30 02:17:10;;;;;;;23.60;6.25;;;18.10;71.20;;;;;;7368892;19;20015;-79
2022/10/30 02:19:41;;;;;;;22.40;6.85;;;18.10;70.80;;;;;;7395923;19;20086;-79
2022/10/30 02:22:13;;;;;;;19.70;6.10;;;18.10;70.60;;;;;;7375143;19;20086;-79
2022/10/30 02:24:42;;;;;;;17.13;5.88;;;18.10;70.30;;;;;;7373744;19;20066;-79
2022/10/30 02:27:11;;;;;;;14.13;5.55;;;18.10;70.10;;;;;;7376121;19;20379;-79
2022/10/30 02:29:39;;;;;;;19.00;5.90;;;18.20;70.40;;;;;;7379710;19;20058;-79
2022/10/30 02:32:08;;;;;;;16.75;5.45;;;18.20;70.40;;;;;;7382861;19;20096;-78
2022/10/30 02:34:37;;;;;;;17.17;5.78;;;18.10;70.20;;;;;;7403660;19;20015;-78
2022/10/30 02:37:05;;;;;;;11.88;5.70;;;18.20;70.10;;;;;;7376064;19;20019;-79
2022/10/30 02:39:37;;;;;;;20.00;6.65;;;18.20;70.10;;;;;;7376553;19;20018;-79
2022/10/30 02:42:06;;;;;;;19.75;6.40;;;18.10;70.00;;;;;;7375757;19;20052;-79
2022/10/30 02:44:35;;;;;;;21.30;5.85;;;18.10;70.20;;;;;;7372816;19;20032;-79
2022/10/30 02:47:03;;;;;;;17.92;6.28;;;18.10;70.40;;;;;;7369826;19;20094;-78
2022/10/30 02:49:32;;;;;;;21.27;6.82;;;18.10;70.40;;;;;;7395305;19;20097;-79
2022/10/30 02:52:01;;;;;;;27.52;6.90;;;18.10;70.40;;;;;;7375162;19;20074;-79
2022/10/30 02:54:30;;;;;;;22.63;6.25;;;18.10;70.50;;;;;;7374213;19;20014;-79
2022/10/30 02:57:01;;;;;;;20.20;6.10;;;18.10;70.50;;;;;;7370584;19;20883;-79
2022/10/30 02:59:30;;;;;;;19.42;6.22;;;18.00;70.50;;;;;;7373038;19;20113;-79
2022/10/30 03:01:59;;;;;;;17.92;5.85;;;18.00;70.40;;;;;;7370413;19;20014;-78
2022/10/30 03:04:28;;;;;;;21.92;6.38;;;18.00;69.90;;;;;;7391439;19;20026;-79
2022/10/30 03:06:57;;;;;;;14.50;6.18;;;18.00;70.70;;;;;;7371168;19;20019;-80
2022/10/30 03:09:25;;;;;;;20.08;6.93;;;17.90;70.60;;;;;;7370900;19;20089;-79
2022/10/30 03:11:57;;;;;;;21.02;5.60;;;17.90;70.70;;;;;;7372039;19;20028;-78
2022/10/30 03:14:28;;;;;;;17.23;6.00;;;17.90;70.90;;;;;;7371655;19;20105;-79
2022/10/30 03:16:57;;;;;;;19.52;6.10;;;17.90;70.90;;;;;;7371771;19;20025;-79
2022/10/30 03:19:25;;;;;;;20.73;6.20;;;17.90;70.90;;;;;;7393790;19;20348;-79
2022/10/30 03:21:55;;;;;;;23.98;6.70;;;17.80;70.90;;;;;;7379223;19;20066;-79
2022/10/30 03:24:23;;;;;;;19.45;6.50;;;17.80;71.30;;;;;;7389621;19;20054;-79
2022/10/30 03:26:52;;;;;;;17.75;5.38;;;17.70;71.30;;;;;;7393553;19;20011;-79
2022/10/30 03:29:21;;;;;;;23.73;7.35;;;17.70;71.60;;;;;;7380024;19;20021;-79
2022/10/30 03:31:52;;;;;;;26.83;7.00;;;17.70;71.60;;;;;;7392271;19;20405;-79
2022/10/30 03:34:21;;;;;;;22.27;5.85;;;17.60;71.90;;;;;;7371936;19;20395;-79
2022/10/30 03:36:50;;;;;;;24.05;7.13;;;17.60;72.00;;;;;;7375586;19;20109;-79
2022/10/30 03:39:18;;;;;;;20.13;6.95;;;17.60;72.00;;;;;;7384178;19;20035;-79
2022/10/30 03:41:47;;;;;;;24.63;6.78;;;17.60;71.90;;;;;;7378155;19;20515;-79
2022/10/30 03:44:16;;;;;;;21.50;6.93;;;17.60;71.90;;;;;;7372435;19;20403;-80
2022/10/30 03:46:45;;;;;;;19.48;6.43;;;17.60;71.80;;;;;;7394294;19;20048;-79
2022/10/30 03:49:16;;;;;;;16.35;6.55;;;17.70;71.80;;;;;;7372631;19;20153;-79
2022/10/30 03:51:45;;;;;;;26.00;6.53;;;17.60;71.80;;;;;;7370015;19;20425;-79
2022/10/30 03:54:13;;;;;;;18.05;6.15;;;17.60;71.90;;;;;;7370527;19;20021;-79
2022/10/30 03:56:42;;;;;;;23.80;6.43;;;17.70;72.10;;;;;;7367691;19;20010;-79
2022/10/30 03:59:11;;;;;;;13.20;5.35;;;17.70;71.90;;;;;;7373081;19;20021;-78
2022/10/30 04:01:40;;;;;;;17.20;5.55;;;17.70;71.70;;;;;;7397181;19;20505;-79
2022/10/30 04:04:08;;;;;;;23.52;6.28;;;17.70;71.60;;;;;;7375532;19;20018;-79
2022/10/30 04:06:40;;;;;;;23.25;5.38;;;17.70;71.60;;;;;;7376654;19;20024;-79
2022/10/30 04:09:08;;;;;;;13.98;5.40;;;17.70;71.50;;;;;;7376079;19;20014;-79
2022/10/30 04:11:37;;;;;;;14.75;5.63;;;17.70;71.40;;;;;;7374622;19;20024;-79
2022/10/30 04:14:06;;;;;;;16.85;5.80;;;17.80;71.50;;;;;;7376784;19;20011;-79
2022/10/30 04:16:34;;;;;;;13.10;5.53;;;17.70;71.30;;;;;;7397029;19;20019;-79
2022/10/30 04:19:03;;;;;;;19.02;5.68;;;17.80;71.30;;;;;;7374718;19;20026;-79
2022/10/30 04:21:32;;;;;;;14.25;5.72;;;17.80;71.10;;;;;;7375377;19;20453;-79
2022/10/30 04:24:03;;;;;;;19.95;6.70;;;17.70;71.20;;;;;;7376927;19;20032;-80
2022/10/30 04:26:36;;;;;;;15.43;6.75;;;17.70;71.20;;;;;;7376467;19;20015;-79
2022/10/30 04:29:05;;;;;;;20.45;6.22;;;17.70;71.20;;;;;;7379733;19;20451;-79
2022/10/30 04:31:33;;;;;;;15.10;6.47;;;17.80;71.20;;;;;;7397812;19;20018;-79
2022/10/30 04:34:02;;;;;;;17.42;6.55;;;17.70;71.10;;;;;;7376821;19;20615;-79
2022/10/30 04:36:32;;;;;;;22.15;6.80;;;17.70;71.10;;;;;;7377028;19;20486;-79
2022/10/30 04:39:04;;;;;;;23.75;6.68;;;17.70;71.30;;;;;;7376543;19;20125;-79
2022/10/30 04:41:33;;;;;;;14.85;5.55;;;17.60;71.20;;;;;;7378005;19;20021;-78
2022/10/30 04:44:01;;;;;;;16.70;6.45;;;17.60;70.80;;;;;;7374582;19;20101;-78
2022/10/30 04:46:30;;;;;;;13.73;5.78;;;17.60;70.60;;;;;;7400935;19;20523;-79
2022/10/30 04:48:59;;;;;;;19.20;6.40;;;17.60;70.60;;;;;;7376397;19;20022;-79
2022/10/30 04:51:27;;;;;;;18.10;6.47;;;17.60;70.70;;;;;;7382884;19;20014;-79
2022/10/30 04:53:57;;;;;;;19.88;6.20;;;17.60;70.80;;;;;;7380190;19;20093;-78
2022/10/30 04:56:28;;;;;;;20.83;6.60;;;17.60;70.90;;;;;;7377335;19;20022;-79
2022/10/30 04:58:57;;;;;;;18.15;6.05;;;17.60;70.70;;;;;;7377128;19;20014;-79
2022/10/30 05:01:26;;;;;;;14.68;6.07;;;17.60;70.70;;;;;;7399356;19;20109;-79
2022/10/30 05:03:57;;;;;;;16.35;6.28;;;17.60;70.60;;;;;;7371236;19;20021;-79
2022/10/30 05:06:29;;;;;;;24.50;5.95;;;17.60;70.50;;;;;;7374860;19;20068;-79
2022/10/30 05:09:00;;;;;;;17.13;5.82;;;17.60;70.30;;;;;;7374065;19;20058;-79
2022/10/30 05:11:31;;;;;;;23.30;5.72;;;17.60;70.30;;;;;;7369886;19;20130;-79
2022/10/30 05:14:00;;;;;;;;;;;17.50;70.30;;;;;;7371445;19;20018;-78
2022/10/30 05:16:29;;;;;;;14.02;6.15;;;17.60;70.50;;;;;;7392617;19;19925;-79
2022/10/30 05:18:58;;;;;;;13.90;5.05;;;17.60;70.50;;;;;;7371969;19;20018;-78
2022/10/30 05:21:27;;;;;;;17.15;5.43;;;17.50;70.30;;;;;;7371148;19;20585;-78
2022/10/30 05:23:55;;;;;;;14.35;6.30;;;17.50;70.00;;;;;;7374131;19;20029;-78
2022/10/30 05:26:24;;;;;;;16.52;5.82;;;17.50;70.00;;;;;;7375649;19;20087;-78
2022/10/30 05:28:56;;;;;;;21.52;5.93;;;17.50;70.10;;;;;;7394995;19;20010;-79
2022/10/30 05:31:24;;;;;;;;;;;17.50;70.30;;;;;;7375893;19;20422;-79
2022/10/30 05:33:53;;;;;;;22.42;6.50;;;17.60;70.30;;;;;;7372463;19;19978;-79
2022/10/30 05:36:21;;;;;;;18.80;6.28;;;17.50;70.20;;;;;;7371084;19;20395;-79
2022/10/30 05:38:50;;;;;;;28.15;6.80;;;17.50;70.40;;;;;;7371715;19;20013;-79
2022/10/30 05:41:19;;;;;;;18.27;6.70;;;17.50;70.40;;;;;;7374340;19;20015;-79
2022/10/30 05:43:47;;;;;;;20.27;5.90;;;17.40;70.50;;;;;;7398441;19;20046;-79
2022/10/30 05:46:19;;;;;;;19.85;6.18;;;17.40;70.60;;;;;;7377050;19;20753;-79
2022/10/30 05:48:47;;;;;;;16.90;5.93;;;17.40;70.50;;;;;;7374274;19;20067;-79
2022/10/30 05:51:16;;;;;;;16.83;7.50;;;17.40;70.30;;;;;;7373234;19;20031;-79
2022/10/30 05:53:45;;;;;;;19.73;6.85;;;17.40;70.50;;;;;;7372300;19;20022;-79
2022/10/30 05:56:14;;;;;;;22.52;6.78;;;17.40;70.50;;;;;;7372111;19;20702;-79
2022/10/30 05:58:42;;;;;;;16.77;6.25;;;17.40;70.60;;;;;;7393869;19;20445;-78
2022/10/30 06:01:11;;;;;;;32.10;7.30;;;17.40;70.80;;;;;;7371580;19;20102;-80
2022/10/30 06:03:43;;;;;;;15.88;7.00;;;17.40;71.10;;;;;;7373392;19;20505;-79
2022/10/30 06:06:12;;;;;;;13.75;5.80;;;17.30;71.10;;;;;;7371975;19;20013;-79
2022/10/30 06:08:40;;;;;;;17.58;6.40;;;17.40;71.20;;;;;;7371661;19;20106;-79
2022/10/30 06:11:09;;;;;;;26.17;6.63;;;17.30;70.90;;;;;;7370464;19;20014;-79
2022/10/30 06:13:39;;;;;;;14.40;6.03;;;17.30;70.90;;;;;;7392463;19;20504;-79
2022/10/30 06:16:08;;;;;;;16.58;6.30;;;17.30;71.00;;;;;;7372539;19;20360;-79
2022/10/30 06:18:37;;;;;;;18.85;6.53;;;17.30;71.00;;;;;;7374996;19;20082;-79
2022/10/30 06:21:08;;;;;;;21.70;6.82;;;17.30;71.10;;;;;;7373259;19;20024;-78
2022/10/30 06:23:37;;;;;;;15.93;7.10;;;17.30;71.30;;;;;;7373293;19;20375;-78
2022/10/30 06:26:06;;;;;;;19.27;6.75;;;17.30;71.50;;;;;;7376651;19;20656;-78
2022/10/30 06:28:34;;;;;;;16.50;6.68;;;17.30;71.50;;;;;;7403894;19;20451;-79
2022/10/30 06:31:03;;;;;;;22.58;6.90;;;17.30;71.50;;;;;;7377507;19;20551;-79
2022/10/30 06:33:32;;;;;;;16.13;6.93;;;17.30;71.50;;;;;;7371563;19;20019;-79
2022/10/30 06:36:00;;;;;;;25.17;7.63;;;17.30;71.40;;;;;;7372763;19;20011;-78
2022/10/30 06:38:32;;;;;;;22.05;6.60;;;17.30;71.40;;;;;;7369865;19;20540;-78
2022/10/30 06:41:01;;;;;;;27.35;7.03;;;17.30;71.30;;;;;;7370036;19;20023;-79
2022/10/30 06:43:29;;;;;;;17.75;6.35;;;17.30;71.30;;;;;;7394563;19;20049;-79
2022/10/30 06:45:59;;;;;;;21.42;7.28;;;17.30;71.30;;;;;;7371437;19;20015;-79
2022/10/30 06:48:28;;;;;;;22.98;7.70;;;17.30;71.40;;;;;;7371977;19;20097;-79
2022/10/30 06:50:57;;;;;;;22.85;7.55;;;17.30;71.60;;;;;;7371467;19;20018;-79
2022/10/30 06:53:26;;;;;;;17.00;6.40;;;17.30;71.80;;;;;;7368718;19;20093;-79
2022/10/30 06:56:02;;;;;;;19.35;6.80;;;17.20;71.30;;;;;;7380575;19;20081;-78
2022/10/30 06:58:37;;;;;;;18.10;6.90;;;17.20;71.10;;;;;;7393029;19;20018;-78
2022/10/30 07:01:06;;;;;;;22.58;8.20;;;17.30;71.10;;;;;;7369126;19;20018;-79
2022/10/30 07:03:35;;;;;;;23.13;8.60;;;17.30;71.20;;;;;;7371384;19;20612;-79
2022/10/30 07:06:04;;;;;;;32.17;10.68;;;17.30;71.20;;;;;;7373732;19;20090;-78
2022/10/30 07:08:33;;;;;;;40.83;12.07;;;17.30;71.10;;;;;;7377242;19;20010;-78
2022/10/30 07:11:04;;;;;;;30.38;10.15;;;17.30;71.10;;;;;;7388803;19;20027;-78
2022/10/30 07:13:33;;;;;;;37.58;10.68;;;17.40;71.20;;;;;;7404954;19;20092;-78
2022/10/30 07:16:02;;;;;;;38.28;11.27;;;17.40;71.10;;;;;;7374661;19;20030;-79
2022/10/30 07:18:30;;;;;;;33.58;11.60;;;17.40;70.70;;;;;;7372885;19;20017;-78
2022/10/30 07:20:59;;;;;;;36.80;10.48;;;17.40;70.60;;;;;;7373416;19;20121;-79
2022/10/30 07:23:28;;;;;;;31.42;8.95;;;17.40;70.50;;;;;;7373012;19;20011;-79
2022/10/30 07:25:56;;;;;;;30.25;9.20;;;17.40;70.70;;;;;;7374204;19;20015;-78
2022/10/30 07:28:28;;;;;;;23.02;8.80;;;17.30;71.10;;;;;;7391735;19;20018;-78
2022/10/30 07:30:56;;;;;;;27.77;9.93;;;17.30;71.50;;;;;;7371150;19;20456;-78
2022/10/30 07:33:26;;;;;;;29.60;8.45;;;17.30;71.80;;;;;;7371295;19;20006;-79
2022/10/30 07:35:54;;;;;;;19.60;8.40;;;17.40;72.00;;;;;;7378854;19;20018;-78
2022/10/30 07:38:23;;;;;;;31.08;10.52;;;17.40;71.90;;;;;;7377941;19;20014;-79
2022/10/30 07:40:54;;;;;;;31.98;11.88;;;17.50;72.00;;;;;;7401021;19;20384;-79
2022/10/30 07:43:23;;;;;;;22.33;10.10;;;17.50;71.80;;;;;;7376909;19;20036;-79
2022/10/30 07:45:55;;;;;;;26.23;9.85;;;17.60;71.90;;;;;;7378554;19;20094;-78
2022/10/30 07:48:24;;;;;;;35.58;10.38;;;17.60;71.80;;;;;;7375687;19;20022;-78
2022/10/30 07:50:53;;;;;;;28.52;10.00;;;17.70;71.90;;;;;;7375861;19;20019;-78
2022/10/30 07:53:21;;;;;;;29.98;11.52;;;17.70;71.90;;;;;;7377636;19;20102;-79
2022/10/30 07:55:50;;;;;;;37.83;11.93;;;17.80;72.00;;;;;;7401798;19;20043;-79
2022/10/30 07:58:19;;;;;;;35.10;10.93;;;17.80;71.90;;;;;;7376381;19;20090;-79
2022/10/30 08:00:48;;;;;;;31.73;11.90;;;17.80;71.90;;;;;;7373952;19;20078;-78
2022/10/30 08:03:19;;;;;;;38.45;14.10;;;17.90;72.00;;;;;;7377527;19;20026;-78
2022/10/30 08:05:48;;;;;;;43.03;18.17;;;17.90;72.20;;;;;;7375881;19;20139;-78
2022/10/30 08:08:16;;;;;;;53.88;19.90;;;18.00;72.30;;;;;;7377785;19;20022;-78
2022/10/30 08:10:45;;;;;;;56.75;20.85;;;18.00;72.30;;;;;;7399074;19;20049;-79
2022/10/30 08:13:14;;;;;;;54.08;20.67;;;18.00;72.30;;;;;;7374561;19;20015;-79
2022/10/30 08:15:44;;;;;;;52.20;21.13;;;18.00;72.50;;;;;;7376797;19;20556;-79
2022/10/30 08:18:13;;;;;;;58.50;23.48;;;18.10;72.60;;;;;;7380343;19;20006;-79
2022/10/30 08:20:48;;;;;;;68.75;26.92;;;18.10;72.70;;;;;;7376961;19;20010;-79
2022/10/30 08:23:18;;;;;;;103.78;39.88;;;18.10;73.60;;;;;;7377234;19;20019;-79
2022/10/30 08:25:48;;;;;;;93.07;41.90;;;18.10;72.90;;;;;;7397148;19;20101;-78
2022/10/30 08:28:16;;;;;;;77.80;33.40;;;18.20;73.10;;;;;;7374016;19;20043;-78
2022/10/30 08:30:45;;;;;;;70.55;27.02;;;18.20;73.30;;;;;;7373933;19;20022;-78
2022/10/30 08:33:15;;;;;;;61.10;25.80;;;18.20;73.30;;;;;;7373005;19;20044;-79
2022/10/30 08:35:52;;;;;;;66.88;24.55;;;18.30;73.50;;;;;;7372122;19;20010;-78
2022/10/30 08:38:21;;;;;;;49.45;20.00;;;18.30;73.80;;;;;;7373908;19;20437;-78
2022/10/30 08:40:50;;;;;;;43.42;20.00;;;18.40;73.80;;;;;;7397071;19;20498;-79
2022/10/30 08:43:19;;;;;;;41.97;18.35;;;18.40;73.90;;;;;;7375532;19;20355;-78
2022/10/30 08:45:48;;;;;;;42.78;18.50;;;18.50;74.00;;;;;;7371669;19;20015;-79
2022/10/30 08:48:18;;;;;;;41.55;18.13;;;18.50;73.90;;;;;;7372974;19;20018;-78
2022/10/30 08:50:46;;;;;;;37.80;17.05;;;18.50;74.10;;;;;;7374387;19;20022;-78
2022/10/30 08:53:19;;;;;;;60.22;24.58;;;18.60;74.40;;;;;;7374084;19;20004;-78
2022/10/30 08:55:48;;;;;;;52.25;21.75;;;18.60;74.40;;;;;;7395606;19;20020;-78
2022/10/30 08:58:17;;;;;;;43.50;17.60;;;18.60;74.20;;;;;;7375110;19;20011;-79
2022/10/30 09:00:45;;;;;;;29.88;13.85;;;18.70;74.20;;;;;;7373886;19;20040;-79
2022/10/30 09:03:14;;;;;;;39.88;15.18;;;18.70;74.10;;;;;;7374136;19;20379;-79
2022/10/30 09:05:43;;;;;;;38.65;15.68;;;18.70;74.10;;;;;;7375352;19;20017;-78
2022/10/30 09:08:11;;;;;;;37.00;16.10;;;18.70;74.10;;;;;;7374536;19;20617;-78
2022/10/30 09:10:43;;;;;;;30.15;12.40;;;18.70;74.10;;;;;;7392748;19;20747;-79
2022/10/30 09:13:12;;;;;;;33.67;11.88;;;18.70;74.20;;;;;;7376602;19;20097;-79
2022/10/30 09:15:40;;;;;;;28.92;10.77;;;18.80;74.40;;;;;;7380754;19;20014;-79
2022/10/30 09:18:10;;;;;;;38.67;14.45;;;18.80;74.40;;;;;;7380668;19;20085;-79
2022/10/30 09:20:39;;;;;;;34.55;13.35;;;18.90;74.40;;;;;;7377437;19;20015;-79
2022/10/30 09:23:07;;;;;;;22.02;9.90;;;18.90;74.40;;;;;;7375308;19;20022;-79
2022/10/30 09:25:36;;;;;;;32.10;10.30;;;18.90;74.40;;;;;;7399825;19;20089;-78
2022/10/30 09:28:08;;;;;;;19.63;8.88;;;18.90;74.70;;;;;;7376013;19;20393;-80
2022/10/30 09:30:36;;;;;;;21.83;8.00;;;18.90;74.00;;;;;;7376210;19;20085;-79
2022/10/30 09:33:05;;;;;;;19.17;6.20;;;18.90;73.60;;;;;;7378946;19;20048;-78
2022/10/30 09:35:35;;;;;;;18.77;5.95;;;18.90;71.60;;;;;;7381088;19;20034;-78
2022/10/30 09:38:04;;;;;;;22.50;6.20;;;18.90;70.60;;;;;;7380431;19;20015;31
2022/10/30 09:40:46;;;;;;;26.40;6.05;;;19.00;70.80;;;;;;7371710;19;20246;-87
2022/10/30 09:43:33;;;;;;;15.32;5.60;;;19.00;70.60;;;;;;7375338;19;20023;-84
2022/10/30 09:46:18;;;;;;;21.70;6.85;;;19.20;70.90;;;;;;7375197;19;20010;-84
2022/10/30 09:49:15;;;;;;;14.82;5.40;;;19.30;70.60;;;;;;7382123;19;20086;-89
2022/10/30 09:52:16;;;;;;;18.92;5.07;;;19.40;69.20;;;;;;7400804;19;20313;-85
2022/10/30 09:55:15;;;;;;;22.23;6.40;;;19.40;68.80;;;;;;7393660;19;20018;-87
2022/10/30 09:57:50;;;;;;;16.08;5.07;;;19.50;68.00;;;;;;7390968;19;20031;-87
2022/10/30 10:00:24;;;;;;;19.00;5.45;;;19.60;68.00;;;;;;7402233;19;20018;-86
2022/10/30 10:03:04;;;;;;;19.15;6.32;;;19.70;68.00;;;;;;7405032;19;20031;-84
2022/10/30 10:05:43;;;;;;;17.80;5.45;;;19.70;67.30;;;;;;7392816;19;20415;-88
2022/10/30 10:08:19;;;;;;;21.08;5.15;;;19.70;66.70;;;;;;7383326;19;20078;-87
2022/10/30 10:10:55;;;;;;;14.95;5.43;;;19.70;66.90;;;;;;7402453;19;20062;-86
2022/10/30 10:13:34;;;;;;;16.80;5.07;;;19.70;66.00;;;;;;7389669;19;20018;-87
2022/10/30 10:16:13;;;;;;;17.58;5.32;;;19.60;66.60;;;;;;7390130;19;20050;-88
2022/10/30 10:18:47;;;;;;;18.60;4.80;;;19.50;66.30;;;;;;7378605;19;20086;-85
2022/10/30 10:21:23;;;;;;;22.10;5.32;;;19.60;66.70;;;;;;7383494;19;20039;-86
2022/10/30 10:23:53;;;;;;;21.15;5.55;;;19.50;66.50;;;;;;7380767;19;20086;-87
2022/10/30 10:26:30;;;;;;;19.70;5.43;;;19.50;66.90;;;;;;7380628;19;20078;-88
2022/10/30 10:29:35;;;;;;;19.83;6.15;;;19.60;67.00;;;;;;7373744;19;20026;-87
2022/10/30 10:32:21;;;;;;;16.35;5.13;;;19.60;67.10;;;;;;7391817;19;20010;-89
2022/10/30 10:35:07;;;;;;;20.27;5.03;;;19.70;66.80;;;;;;7407776;19;20011;-86
2022/10/30 10:37:42;;;;;;;24.85;5.25;;;19.70;66.60;;;;;;7372845;19;20014;-85
2022/10/30 10:40:25;;;;;;;22.17;5.15;;;19.70;66.80;;;;;;7387863;19;20026;-85
2022/10/30 10:43:05;;;;;;;24.75;5.65;;;19.70;66.90;;;;;;7393093;19;20015;-88
2022/10/30 10:45:41;;;;;;;17.85;5.35;;;19.70;67.20;;;;;;7389755;19;20098;-88
2022/10/30 10:48:33;;;;;;;18.50;5.28;;;19.80;67.10;;;;;;7373851;19;20022;-84
2022/10/30 10:51:07;;;;;;;16.77;5.60;;;19.70;67.20;;;;;;7370029;19;20105;-84
2022/10/30 10:53:45;;;;;;;17.60;5.13;;;19.70;67.60;;;;;;7368700;19;20081;-82
2022/10/30 10:56:15;;;;;;;19.77;5.28;;;19.80;67.60;;;;;;7366842;19;20115;-83
2022/10/30 10:58:51;;;;;;;20.17;5.50;;;19.80;67.40;;;;;;7388826;19;20049;-80
2022/10/30 11:01:24;;;;;;;15.07;5.43;;;19.90;67.70;;;;;;7368383;19;20015;-84
2022/10/30 11:04:02;;;;;;;23.05;5.90;;;20.00;67.60;;;;;;7369662;19;20473;-86
2022/10/30 11:06:34;;;;;;;23.10;5.75;;;20.00;67.60;;;;;;7368595;19;20015;-86
2022/10/30 11:09:18;;;;;;;25.05;6.55;;;19.90;68.00;;;;;;7361147;19;22632;-88
2022/10/30 11:14:59;;;;;;;20.47;5.53;;;20.00;68.20;;;;;;7376972;19;20022;-82
2022/10/30 11:17:36;;;;;;;24.95;5.97;;;20.00;68.30;;;;;;7380499;19;20254;-83
2022/10/30 11:20:20;;;;;;;24.20;6.30;;;20.00;67.70;;;;;;7385701;19;20042;-82
2022/10/30 11:22:52;;;;;;;21.50;5.68;;;20.00;68.00;;;;;;7399341;19;20101;-89
2022/10/30 11:25:23;;;;;;;25.60;6.60;;;20.00;68.10;;;;;;7391025;19;20019;-86
2022/10/30 11:27:58;;;;;;;23.40;6.37;;;20.10;69.00;;;;;;7382319;19;20013;-81
2022/10/30 11:30:29;;;;;;;21.05;5.90;;;19.90;68.60;;;;;;7380531;19;20082;-84
2022/10/30 11:32:58;;;;;;;18.40;6.10;;;20.00;68.70;;;;;;7381600;19;20019;-85
2022/10/30 11:35:29;;;;;;;19.02;6.32;;;19.90;69.10;;;;;;7382632;19;20286;-83
2022/10/30 11:38:15;;;;;;;23.58;6.38;;;20.10;68.90;;;;;;7379793;19;20082;-82
2022/10/30 11:40:49;;;;;;;23.90;6.57;;;20.10;69.00;;;;;;7398277;19;20014;-81
2022/10/30 11:43:24;;;;;;;20.95;7.03;;;20.20;68.60;;;;;;7379998;19;20026;-82
2022/10/30 11:45:53;;;;;;;23.30;5.95;;;20.00;68.60;;;;;;7378295;19;20710;-82
2022/10/30 11:48:25;;;;;;;15.73;5.53;;;20.10;68.90;;;;;;7379182;19;20054;-81
2022/10/30 11:51:00;;;;;;;20.80;6.15;;;19.90;69.10;;;;;;7378685;19;20086;-89
2022/10/30 11:53:35;;;;;;;28.23;6.07;;;19.90;69.50;;;;;;7394299;19;20022;-88
2022/10/30 11:56:05;;;;;;;31.48;6.78;;;19.60;70.70;;;;;;7388901;19;20046;-91
2022/10/30 11:58:38;;;;;;;19.15;5.93;;;19.70;70.80;;;;;;7416461;19;20018;-90
2022/10/30 12:01:12;;;;;;;15.63;5.93;;;19.80;70.40;;;;;;7403079;19;20027;-91
2022/10/30 12:03:43;;;;;;;21.50;5.30;;;19.70;70.80;;;;;;7407688;19;20054;-83
2022/10/30 12:06:20;;;;;;;23.70;5.53;;;19.70;71.00;;;;;;7395958;19;20027;-84
2022/10/30 12:09:04;;;;;;;17.80;5.43;;;19.70;71.00;;;;;;7364831;19;20032;-85
2022/10/30 12:11:35;;;;;;;19.27;5.90;;;19.70;71.10;;;;;;7379815;19;20095;-84
2022/10/30 12:14:04;;;;;;;18.45;5.43;;;19.50;71.50;;;;;;7384121;19;20433;-85
2022/10/30 12:16:35;;;;;;;14.07;5.60;;;19.60;72.00;;;;;;7401734;19;20014;-89
2022/10/30 12:19:08;;;;;;;13.68;5.28;;;19.70;71.30;;;;;;7386771;19;20047;-86
2022/10/30 12:21:45;;;;;;;16.60;5.55;;;19.70;70.70;;;;;;7380605;19;20018;-78
2022/10/30 12:24:19;;;;;;;14.00;4.22;;;19.60;70.80;;;;;;7376509;19;20093;-85
2022/10/30 12:26:51;;;;;;;16.20;3.90;;;19.60;70.80;;;;;;7393075;19;20075;-88
2022/10/30 12:29:20;;;;;;;;;;;19.60;69.70;;;;;;7386789;19;20215;-88
2022/10/30 12:32:00;;;;;;;14.48;3.70;;;19.60;70.00;;;;;;7370792;19;20783;-87
2022/10/30 12:42:21;;;;;;;13.75;3.50;;;19.80;69.20;;;;;;7296863;19;20031;-91
2022/10/30 12:45:10;;;;;;;10.40;4.00;;;19.70;69.40;;;;;;7387705;19;20047;-93
2022/10/30 12:47:47;;;;;;;9.65;3.50;;;19.70;69.40;;;;;;7274098;19;20010;-82
2022/10/30 12:58:15;;;;;;;10.40;3.30;;;19.90;69.70;;;;;;7309603;19;20018;-93
2022/10/30 13:01:03;;;;;;;14.23;4.28;;;19.80;69.80;;;;;;7374697;19;20035;-88
2022/10/30 13:06:18;;;;;;;12.90;3.42;;;19.70;70.30;;;;;;7315178;19;20023;-90
2022/10/30 13:14:03;;;;;;;11.18;3.40;;;19.70;70.50;;;;;;7306574;19;20039;-78
2022/10/30 13:21:51;;;;;;;9.82;3.20;;;19.90;68.90;;;;;;7304306;19;20030;-85
2022/10/30 13:24:25;;;;;;;15.35;3.47;;;20.00;69.00;;;;;;7380946;19;20375;-90
2022/10/30 13:26:59;;;;;;;8.02;2.90;;;20.20;68.70;;;;;;7392330;19;20031;-89
2022/10/30 13:29:35;;;;;;;15.10;3.42;;;20.40;68.00;;;;;;7378583;19;20028;-90
2022/10/30 13:32:30;;;;;;;8.88;2.70;;;20.40;67.40;;;;;;7384456;19;20010;-88